| time (UTC) | temp C | wind direction | speed KPH | gust KPH | rain 1hr cm | rain 24hr cm | rain mn cm | humidity % | barometer mb |
| 20260509202037 | 23 | 265 | 3.2 | 9.7 | 0.00 | 0.41 | 0.36 | 58 | 1009.2 |
| 20260509201018 | 23 | 248 | 4.8 | 12.9 | 0.00 | 0.41 | 0.36 | 59 | 1009.3 |
| 20260509200038 | 23 | 193 | 4.8 | 12.9 | 0.00 | 0.41 | 0.36 | 59 | 1009.3 |
| 20260509195038 | 23 | 278 | 4.8 | 12.9 | 0.00 | 0.41 | 0.36 | 60 | 1009.3 |
| 20260509194017 | 22 | 302 | 3.2 | 8.0 | 0.00 | 0.41 | 0.36 | 62 | 1009.4 |
| 20260509193018 | 22 | 252 | 3.2 | 8.0 | 0.00 | 0.41 | 0.36 | 64 | 1009.5 |
| 20260509192038 | 23 | 266 | 4.8 | 14.5 | 0.00 | 0.41 | 0.36 | 62 | 1009.5 |
| 20260509191018 | 22 | 238 | 3.2 | 8.0 | 0.00 | 0.41 | 0.36 | 63 | 1009.6 |
| 20260509190018 | 22 | 215 | 4.8 | 11.3 | 0.00 | 0.41 | 0.36 | 64 | 1009.6 |
| 20260509185016 | 22 | 202 | 4.8 | 12.9 | 0.00 | 0.41 | 0.36 | 63 | 1009.8 |
| 20260509184019 | 21 | 245 | 3.2 | 9.7 | 0.00 | 0.41 | 0.36 | 64 | 1009.8 |
| 20260509183019 | 21 | 255 | 3.2 | 8.0 | 0.00 | 0.41 | 0.36 | 68 | 1009.9 |
| 20260509182019 | 20 | 287 | 3.2 | 9.7 | 0.00 | 0.41 | 0.36 | 69 | 1010.0 |
| 20260509181019 | 21 | 257 | 4.8 | 9.7 | 0.00 | 0.41 | 0.36 | 68 | 1010.1 |
| 20260509180016 | 20 | 230 | 3.2 | 8.0 | 0.00 | 0.41 | 0.36 | 70 | 1010.2 |
| 20260509175017 | 20 | 279 | 3.2 | 8.0 | 0.00 | 0.41 | 0.36 | 72 | 1010.3 |
| 20260509174017 | 20 | 212 | 4.8 | 17.7 | 0.00 | 0.41 | 0.36 | 71 | 1010.3 |
| 20260509173037 | 20 | 289 | 3.2 | 9.7 | 0.00 | 0.41 | 0.36 | 72 | 1010.3 |
| 20260509172020 | 20 | 181 | 3.2 | 9.7 | 0.00 | 0.41 | 0.36 | 74 | 1010.3 |
| 20260509171017 | 20 | 273 | 4.8 | 12.9 | 0.00 | 0.41 | 0.36 | 74 | 1010.4 |
| 20260509170017 | 19 | 258 | 3.2 | 9.7 | 0.00 | 0.41 | 0.36 | 74 | 1010.5 |
| 20260509165018 | 19 | 278 | 4.8 | 9.7 | 0.00 | 0.41 | 0.36 | 75 | 1010.4 |
| 20260509164018 | 19 | 270 | 3.2 | 9.7 | 0.00 | 0.41 | 0.36 | 75 | 1010.4 |
| 20260509163018 | 18 | 275 | 3.2 | 8.0 | 0.00 | 0.41 | 0.36 | 78 | 1010.4 |
| 20260509162018 | 18 | 281 | 3.2 | 9.7 | 0.00 | 0.41 | 0.36 | 77 | 1010.3 |
| 20260509161018 | 18 | 301 | 3.2 | 9.7 | 0.00 | 0.41 | 0.36 | 78 | 1010.2 |
| 20260509160018 | 18 | 265 | 4.8 | 9.7 | 0.00 | 0.41 | 0.36 | 78 | 1010.2 |
| 20260509155019 | 19 | 281 | 4.8 | 14.5 | 0.00 | 0.41 | 0.36 | 76 | 1010.2 |
| 20260509154019 | 18 | 244 | 1.6 | 6.4 | 0.00 | 0.41 | 0.36 | 81 | 1010.3 |
| 20260509153019 | 18 | 233 | 3.2 | 9.7 | 0.00 | 0.41 | 0.36 | 80 | 1010.1 |
| 20260509152019 | 18 | 184 | 3.2 | 9.7 | 0.00 | 0.41 | 0.36 | 78 | 1010.1 |
| 20260509151016 | 17 | 231 | 3.2 | 9.7 | 0.00 | 0.41 | 0.36 | 81 | 1010.0 |
| 20260509150016 | 17 | 222 | 3.2 | 9.7 | 0.00 | 0.41 | 0.36 | 82 | 1010.0 |
| 20260509145017 | 17 | 266 | 3.2 | 8.0 | 0.00 | 0.41 | 0.36 | 85 | 1010.1 |
| 20260509144020 | 16 | 184 | 4.8 | 12.9 | 0.00 | 0.41 | 0.36 | 85 | 1010.1 |
| 20260509143040 | 16 | 167 | 6.4 | 11.3 | 0.00 | 0.41 | 0.36 | 87 | 1010.1 |
| 20260509142017 | 16 | 203 | 3.2 | 12.9 | 0.00 | 0.41 | 0.36 | 90 | 1009.9 |
| 20260509141018 | 15 | 263 | 1.6 | 4.8 | 0.00 | 0.41 | 0.36 | 93 | 1010.0 |
| 20260509140018 | 15 | 166 | 6.4 | 11.3 | 0.00 | 0.41 | 0.36 | 93 | 1009.9 |
| 20260509135018 | 15 | 148 | 3.2 | 11.3 | 0.00 | 0.41 | 0.36 | 95 | 1009.8 |
| 20260509134018 | 13 | 157 | 4.8 | 9.7 | 0.00 | 0.41 | 0.36 | 96 | 1009.8 |
| 20260509133018 | 13 | 158 | 0.0 | 3.2 | 0.00 | 0.41 | 0.36 | 97 | 1009.8 |
| 20260509132021 | 13 | 173 | 4.8 | 8.0 | 0.00 | 0.41 | 0.36 | 97 | 1009.7 |
| 20260509131038 | 13 | 164 | 3.2 | 6.4 | 0.00 | 0.41 | 0.36 | 98 | 1009.7 |
| 20260509130018 | 13 | 121 | 1.6 | 4.8 | 0.00 | 0.41 | 0.36 | 99 | 1009.7 |
| 20260509125019 | 13 | 173 | 1.6 | 6.4 | 0.00 | 0.41 | 0.36 | 99 | 1009.8 |
| 20260509124018 | 13 | 0.0 | 0.0 | 0.00 | 0.41 | 0.36 | 99 | 1009.7 | |
| 20260509123019 | 13 | 8 | 0.0 | 0.0 | 0.00 | 0.41 | 0.36 | 99 | 1009.7 |
| 20260509122019 | 13 | 163 | 0.0 | 3.2 | 0.00 | 0.41 | 0.36 | 99 | 1009.6 |
| 20260509121019 | 12 | 165 | 3.2 | 4.8 | 0.00 | 0.41 | 0.36 | 99 | 1009.5 |
| 20260509120019 | 12 | 189 | 1.6 | 3.2 | 0.00 | 0.41 | 0.36 | 99 | 1009.3 |
| 20260509115020 | 12 | 188 | 1.6 | 6.4 | 0.00 | 0.41 | 0.36 | 99 | 1009.0 |
| 20260509114039 | 12 | 183 | 1.6 | 3.2 | 0.00 | 0.41 | 0.36 | 99 | 1009.0 |
| 20260509113040 | 12 | 192 | 1.6 | 6.4 | 0.00 | 0.41 | 0.36 | 99 | 1008.8 |
| 20260509112020 | 12 | 185 | 4.8 | 4.8 | 0.00 | 0.41 | 0.36 | 99 | 1008.8 |
| 20260509111020 | 12 | 200 | 1.6 | 4.8 | 0.00 | 0.41 | 0.36 | 99 | 1008.7 |
| 20260509110017 | 12 | 179 | 4.8 | 9.7 | 0.00 | 0.41 | 0.36 | 99 | 1008.5 |
| 20260509105020 | 12 | 180 | 1.6 | 4.8 | 0.00 | 0.41 | 0.36 | 99 | 1008.5 |
| 20260509104021 | 12 | 65 | 0.0 | 1.6 | 0.00 | 0.41 | 0.36 | 99 | 1008.5 |
| 20260509103021 | 12 | 45 | 1.6 | 3.2 | 0.00 | 0.41 | 0.36 | 99 | 1008.3 |
| 20260509102021 | 12 | 153 | 0.0 | 1.6 | 0.00 | 0.41 | 0.36 | 99 | 1008.4 |
| 20260509101021 | 12 | 144 | 1.6 | 4.8 | 0.00 | 0.41 | 0.36 | 99 | 1008.6 |
| 20260509100042 | 12 | 184 | 4.8 | 8.0 | 0.00 | 0.41 | 0.36 | 99 | 1008.9 |
| 20260509095021 | 12 | 182 | 1.6 | 4.8 | 0.03 | 0.41 | 0.36 | 99 | 1008.9 |
| 20260509094021 | 12 | 189 | 1.6 | 3.2 | 0.18 | 0.41 | 0.36 | 99 | 1008.9 |
| 20260509093022 | 12 | 159 | 1.6 | 4.8 | 0.20 | 0.41 | 0.36 | 99 | 1008.9 |
| 20260509092022 | 12 | 203 | 3.2 | 6.4 | 0.20 | 0.41 | 0.36 | 99 | 1009.1 |
| 20260509091022 | 12 | 160 | 3.2 | 8.0 | 0.23 | 0.41 | 0.36 | 99 | 1008.9 |
| 20260509090022 | 12 | 31 | 4.8 | 8.0 | 0.25 | 0.41 | 0.33 | 99 | 1008.7 |
| 20260509085022 | 12 | 78 | 3.2 | 6.4 | 0.25 | 0.38 | 0.33 | 99 | 1009.7 |
| 20260509084022 | 12 | 277 | 1.6 | 3.2 | 0.10 | 0.23 | 0.15 | 99 | 1010.0 |
| 20260509083102 | 12 | 173 | 1.6 | 3.2 | 0.10 | 0.20 | 0.15 | 99 | 1009.6 |
| 20260509082022 | 12 | 301 | 1.6 | 3.2 | 0.10 | 0.20 | 0.15 | 99 | 1009.7 |
| 20260509081022 | 12 | 123 | 1.6 | 3.2 | 0.08 | 0.18 | 0.13 | 99 | 1009.8 |
| 20260509080043 | 12 | 41 | 0.0 | 1.6 | 0.05 | 0.15 | 0.10 | 99 | 1009.8 |
| 20260509075023 | 12 | 87 | 0.0 | 3.2 | 0.05 | 0.13 | 0.08 | 99 | 1009.6 |
| 20260509074023 | 12 | 24 | 1.6 | 3.2 | 0.05 | 0.10 | 0.05 | 99 | 1009.6 |
| 20260509073043 | 12 | 35 | 1.6 | 3.2 | 0.05 | 0.10 | 0.05 | 99 | 1009.7 |
| 20260509072024 | 12 | 31 | 3.2 | 4.8 | 0.05 | 0.10 | 0.05 | 99 | 1009.8 |
| 20260509071024 | 12 | 41 | 1.6 | 1.6 | 0.05 | 0.10 | 0.05 | 99 | 1009.9 |
| 20260509070024 | 12 | 27 | 1.6 | 3.2 | 0.03 | 0.10 | 0.03 | 98 | 1010.3 |
| 20260509065024 | 12 | 37 | 0.0 | 1.6 | 0.03 | 0.08 | 0.03 | 98 | 1010.4 |
| 20260509064024 | 12 | 47 | 1.6 | 3.2 | 0.03 | 0.08 | 0.03 | 98 | 1010.4 |
| 20260509063039 | 12 | 347 | 3.2 | 4.8 | 0.00 | 0.08 | 0.00 | 98 | 1010.5 |
| 20260509062016 | 12 | 10 | 3.2 | 4.8 | 0.00 | 0.05 | 0.00 | 98 | 1010.3 |
| 20260509061016 | 12 | 37 | 3.2 | 4.8 | 0.00 | 0.05 | 0.00 | 98 | 1010.2 |
| 20260509060017 | 12 | 18 | 3.2 | 4.8 | 0.00 | 0.05 | 0.00 | 98 | 1010.3 |
| 20260509055020 | 12 | 16 | 1.6 | 3.2 | 0.00 | 0.05 | 0.00 | 98 | 1010.4 |
| 20260509054017 | 12 | 45 | 0.0 | 3.2 | 0.00 | 0.05 | 0.00 | 98 | 1010.5 |
| 20260509053017 | 12 | 79 | 1.6 | 4.8 | 0.00 | 0.05 | 0.00 | 98 | 1010.5 |
| 20260509052017 | 12 | 31 | 0.0 | 1.6 | 0.00 | 0.05 | 0.00 | 98 | 1010.7 |
| 20260509051018 | 12 | 21 | 1.6 | 3.2 | 0.00 | 0.05 | 0.00 | 98 | 1010.6 |
| 20260509050038 | 12 | 32 | 3.2 | 4.8 | 0.00 | 0.05 | 0.00 | 98 | 1010.5 |
| 20260509045018 | 12 | 30 | 0.0 | 3.2 | 0.00 | 0.05 | 0.00 | 98 | 1010.5 |
| 20260509044018 | 12 | 11 | 1.6 | 4.8 | 0.00 | 0.05 | 0.00 | 98 | 1010.5 |
| 20260509043018 | 13 | 25 | 0.0 | 4.8 | 0.00 | 0.05 | 0.00 | 98 | 1010.4 |
| 20260509042038 | 13 | 38 | 1.6 | 3.2 | 0.00 | 0.05 | 0.00 | 97 | 1010.3 |
| 20260509041019 | 13 | 28 | 1.6 | 3.2 | 0.00 | 0.05 | 0.00 | 97 | 1010.4 |
| 20260509040016 | 13 | 31 | 0.0 | 1.6 | 0.00 | 0.05 | 0.00 | 97 | 1010.5 |
| 20260509035019 | 13 | 55 | 0.0 | 3.2 | 0.00 | 0.05 | 0.05 | 97 | 1010.6 |
| 20260509034019 | 13 | 46 | 0.0 | 3.2 | 0.00 | 0.05 | 0.05 | 97 | 1010.5 |
| 20260509033019 | 13 | 353 | 1.6 | 3.2 | 0.00 | 0.05 | 0.05 | 97 | 1010.5 |
| 20260509032019 | 13 | 35 | 1.6 | 3.2 | 0.03 | 0.05 | 0.05 | 97 | 1010.4 |
| 20260509031036 | 13 | 52 | 0.0 | 3.2 | 0.03 | 0.05 | 0.05 | 96 | 1010.5 |
| 20260509030019 | 13 | 15 | 1.6 | 4.8 | 0.03 | 0.05 | 0.05 | 96 | 1010.5 |
| 20260509025020 | 13 | 31 | 3.2 | 4.8 | 0.03 | 0.05 | 0.05 | 95 | 1010.4 |
| 20260509024037 | 13 | 25 | 3.2 | 4.8 | 0.03 | 0.05 | 0.05 | 95 | 1010.5 |
| 20260509023017 | 13 | 37 | 0.0 | 3.2 | 0.03 | 0.05 | 0.05 | 94 | 1010.6 |
| 20260509022017 | 13 | 44 | 0.0 | 3.2 | 0.03 | 0.05 | 0.05 | 93 | 1010.5 |
| 20260509021018 | 13 | 64 | 3.2 | 4.8 | 0.03 | 0.03 | 0.03 | 93 | 1010.6 |
| 20260509020018 | 13 | 47 | 1.6 | 3.2 | 0.03 | 0.03 | 0.03 | 92 | 1010.8 |
| 20260509015018 | 13 | 46 | 1.6 | 4.8 | 0.03 | 0.03 | 0.03 | 91 | 1010.6 |
| 20260509014018 | 14 | 34 | 3.2 | 8.0 | 0.03 | 0.03 | 0.03 | 89 | 1010.6 |
| 20260509013018 | 15 | 17 | 6.4 | 19.3 | 0.03 | 0.03 | 0.03 | 87 | 1010.7 |
| 20260509012018 | 16 | 33 | 9.7 | 16.1 | 0.03 | 0.03 | 0.03 | 80 | 1010.7 |
| 20260509011016 | 17 | 5 | 11.3 | 20.9 | 0.00 | 0.00 | 0.00 | 68 | 1010.6 |
| 20260509010059 | 18 | 354 | 1.6 | 3.2 | 0.00 | 0.00 | 0.00 | 63 | 1009.9 |
| 20260509005018 | 18 | 231 | 0.0 | 1.6 | 0.00 | 0.00 | 0.00 | 61 | 1009.8 |
| 20260509004019 | 18 | 158 | 1.6 | 4.8 | 0.00 | 0.00 | 0.00 | 60 | 1009.8 |
| 20260509003019 | 18 | 75 | 0.0 | 4.8 | 0.00 | 0.00 | 0.00 | 59 | 1009.7 |
| 20260509002016 | 18 | 189 | 1.6 | 4.8 | 0.00 | 0.00 | 0.00 | 59 | 1009.7 |
| 20260509001017 | 18 | 179 | 1.6 | 6.4 | 0.00 | 0.00 | 0.00 | 59 | 1009.8 |
| 20260509000019 | 19 | 166 | 1.6 | 4.8 | 0.00 | 0.00 | 0.00 | 58 | 1009.8 |
| 20260508235020 | 19 | 186 | 3.2 | 8.0 | 0.00 | 0.00 | 0.00 | 58 | 1009.9 |
| 20260508234017 | 19 | 165 | 1.6 | 8.0 | 0.00 | 0.00 | 0.00 | 58 | 1009.9 |
| 20260508233017 | 19 | 178 | 1.6 | 4.8 | 0.00 | 0.00 | 0.00 | 56 | 1010.0 |
| 20260508232017 | 19 | 171 | 1.6 | 6.4 | 0.00 | 0.00 | 0.00 | 56 | 1010.0 |
| 20260508231038 | 20 | 173 | 1.6 | 9.7 | 0.00 | 0.00 | 0.00 | 56 | 1010.1 |
| 20260508230040 | 20 | 181 | 1.6 | 4.8 | 0.00 | 0.00 | 0.00 | 54 | 1010.2 |
| 20260508225018 | 20 | 242 | 3.2 | 11.3 | 0.00 | 0.00 | 0.00 | 54 | 1010.3 |
| 20260508224018 | 20 | 187 | 4.8 | 16.1 | 0.00 | 0.00 | 0.00 | 54 | 1010.1 |
| 20260508223018 | 20 | 199 | 3.2 | 9.7 | 0.00 | 0.00 | 0.00 | 55 | 1010.2 |
| 20260508222018 | 20 | 222 | 4.8 | 17.7 | 0.00 | 0.00 | 0.00 | 53 | 1010.2 |
| 20260508221016 | 20 | 232 | 4.8 | 12.9 | 0.00 | 0.00 | 0.00 | 54 | 1010.2 |
| 20260508220020 | 20 | 237 | 3.2 | 11.3 | 0.00 | 0.00 | 0.00 | 54 | 1010.2 |
| 20260508215039 | 20 | 254 | 3.2 | 11.3 | 0.00 | 0.00 | 0.00 | 54 | 1010.2 |
| 20260508214019 | 20 | 239 | 3.2 | 9.7 | 0.00 | 0.00 | 0.00 | 54 | 1010.3 |
| 20260508213016 | 20 | 242 | 3.2 | 9.7 | 0.00 | 0.00 | 0.00 | 54 | 1010.3 |
| 20260508212016 | 20 | 219 | 8.0 | 14.5 | 0.00 | 0.00 | 0.00 | 53 | 1010.1 |
| 20260508211017 | 20 | 223 | 6.4 | 16.1 | 0.00 | 0.00 | 0.00 | 52 | 1010.2 |
| 20260508210020 | 21 | 198 | 8.0 | 20.9 | 0.00 | 0.00 | 0.00 | 52 | 1010.3 |
| 20260508205020 | 20 | 217 | 3.2 | 9.7 | 0.00 | 0.00 | 0.00 | 54 | 1010.4 |
| 20260508204037 | 20 | 241 | 3.2 | 9.7 | 0.00 | 0.00 | 0.00 | 53 | 1010.6 |
| 20260508203017 | 20 | 245 | 4.8 | 11.3 | 0.00 | 0.00 | 0.00 | 54 | 1010.7 |